createdAt,value
2023-02-28T00:01:35.370Z,14.60
2023-02-28T00:04:03.874Z,12.20
2023-02-28T00:06:32.456Z,15.70
2023-02-28T00:09:00.838Z,22.50
2023-02-28T00:11:29.574Z,12.90
2023-02-28T00:13:58.321Z,15.30
2023-02-28T00:16:26.753Z,11.90
2023-02-28T00:18:55.830Z,11.60
2023-02-28T00:21:23.990Z,12.50
2023-02-28T00:23:52.372Z,12.60
2023-02-28T00:26:21.909Z,10.20
2023-02-28T00:28:53.967Z,11.80
2023-02-28T00:31:22.438Z,13.30
2023-02-28T00:33:52.101Z,13.20
2023-02-28T00:36:20.427Z,11.90
2023-02-28T00:38:49.021Z,11.20
2023-02-28T00:41:17.709Z,10.30
2023-02-28T00:43:46.199Z,11.40
2023-02-28T00:46:14.632Z,10.80
2023-02-28T00:48:43.169Z,11.60
2023-02-28T00:51:12.070Z,11.30
2023-02-28T00:53:40.450Z,12.40
2023-02-28T00:56:09.142Z,12.60
2023-02-28T00:58:37.746Z,12.60
2023-02-28T01:01:06.291Z,10.20
2023-02-28T01:03:35.021Z,10.40
2023-02-28T01:06:03.603Z,11.50
2023-02-28T01:08:32.295Z,11.00
2023-02-28T01:11:09.678Z,12.90
2023-02-28T01:13:38.630Z,11.40
2023-02-28T01:16:08.092Z,13.60
2023-02-28T01:18:38.572Z,12.40
2023-02-28T01:21:08.851Z,11.60
2023-02-28T01:23:37.753Z,12.40
2023-02-28T01:26:08.286Z,10.60
2023-02-28T01:28:37.081Z,11.20
2023-02-28T01:31:06.620Z,10.40
2023-02-28T01:33:35.514Z,12.00
2023-02-28T01:36:07.369Z,11.50
2023-02-28T01:38:38.290Z,10.60
2023-02-28T01:41:08.515Z,10.60
2023-02-28T01:43:46.105Z,10.20
2023-02-28T01:46:15.690Z,11.50
2023-02-28T01:48:59.658Z,11.00
2023-02-28T01:51:55.927Z,11.20
2023-02-28T01:54:31.113Z,9.70
2023-02-28T01:57:12.489Z,10.10
2023-02-28T01:59:52.449Z,10.50
2023-02-28T02:02:24.087Z,10.50
2023-02-28T02:04:55.450Z,9.70
2023-02-28T02:07:27.826Z,12.10
2023-02-28T02:10:20.774Z,10.00
2023-02-28T02:13:10.442Z,11.50
2023-02-28T02:15:55.836Z,9.70
2023-02-28T02:18:37.103Z,10.20
2023-02-28T02:21:27.827Z,11.40
2023-02-28T02:24:11.623Z,11.10
2023-02-28T02:27:14.287Z,9.30
2023-02-28T02:29:55.361Z,11.60
2023-02-28T02:33:01.608Z,10.30
2023-02-28T02:36:05.246Z,10.90
2023-02-28T02:38:59.682Z,12.90
2023-02-28T02:41:41.261Z,10.60
2023-02-28T02:44:37.177Z,11.90
2023-02-28T02:47:12.621Z,10.00
2023-02-28T02:49:46.222Z,12.70
2023-02-28T02:52:19.610Z,12.40
2023-02-28T02:54:56.505Z,11.80
2023-02-28T02:57:41.871Z,9.80
2023-02-28T03:00:11.720Z,18.50
2023-02-28T03:02:41.609Z,12.00
2023-02-28T03:05:22.068Z,11.00
2023-02-28T03:07:50.656Z,10.90
2023-02-28T03:10:37.058Z,13.20
2023-02-28T03:13:20.085Z,14.20
2023-02-28T03:16:16.833Z,11.60
2023-02-28T03:18:52.144Z,14.20
2023-02-28T03:21:29.850Z,12.40
2023-02-28T03:24:05.601Z,10.80
2023-02-28T03:26:37.670Z,14.20
2023-02-28T03:29:29.588Z,11.30
2023-02-28T03:32:15.831Z,12.10
2023-02-28T03:34:55.732Z,12.40
2023-02-28T03:37:26.725Z,12.20
2023-02-28T03:40:02.420Z,13.20
2023-02-28T03:42:35.230Z,14.00
2023-02-28T03:45:18.036Z,11.20
2023-02-28T03:47:50.820Z,11.60
2023-02-28T03:50:30.982Z,10.10
2023-02-28T03:53:05.919Z,11.10
2023-02-28T03:55:40.825Z,11.00
2023-02-28T03:58:26.323Z,14.60
2023-02-28T04:01:09.104Z,10.80
2023-02-28T04:03:39.448Z,13.40
2023-02-28T04:06:16.837Z,11.90
2023-02-28T04:08:45.380Z,10.80
2023-02-28T04:11:23.327Z,11.70
2023-02-28T04:13:53.757Z,13.60
2023-02-28T04:16:34.398Z,12.10
2023-02-28T04:19:06.272Z,11.30
2023-02-28T04:21:37.564Z,13.50
2023-02-28T04:24:06.938Z,12.80
2023-02-28T04:26:37.675Z,11.40
2023-02-28T04:29:07.175Z,14.80
2023-02-28T04:31:35.725Z,15.90
2023-02-28T04:34:04.470Z,10.80
2023-02-28T04:36:36.125Z,13.30
2023-02-28T04:39:05.294Z,12.80
2023-02-28T04:41:34.922Z,12.70
2023-02-28T04:44:03.940Z,14.60
2023-02-28T04:46:32.961Z,13.60
2023-02-28T04:49:02.040Z,12.20
2023-02-28T04:51:36.461Z,11.30
2023-02-28T04:54:05.026Z,15.90
2023-02-28T04:56:33.636Z,12.90
2023-02-28T04:59:01.816Z,13.80
2023-02-28T05:01:32.511Z,15.80
2023-02-28T05:04:02.985Z,16.50
2023-02-28T05:06:34.471Z,13.20
2023-02-28T05:09:02.726Z,13.40
2023-02-28T05:11:37.395Z,13.90
2023-02-28T05:14:08.427Z,12.90
2023-02-28T05:16:37.186Z,11.60
2023-02-28T05:19:05.857Z,12.40
2023-02-28T05:21:39.686Z,10.70
2023-02-28T05:24:11.860Z,12.00
2023-02-28T05:26:42.729Z,11.70
2023-02-28T05:29:11.410Z,11.70
2023-02-28T05:31:39.758Z,9.40
2023-02-28T05:34:08.053Z,9.80
2023-02-28T05:36:38.728Z,8.70
2023-02-28T05:39:13.400Z,8.50
2023-02-28T05:41:43.387Z,8.70
2023-02-28T05:44:12.256Z,10.70
2023-02-28T05:46:41.243Z,9.40
2023-02-28T05:49:09.941Z,9.20
2023-02-28T05:51:41.038Z,15.00
2023-02-28T05:54:09.662Z,9.20
2023-02-28T05:56:42.244Z,8.70
2023-02-28T05:59:15.030Z,9.60
2023-02-28T06:01:51.405Z,10.20
2023-02-28T06:04:31.427Z,9.90
2023-02-28T06:07:00.072Z,7.20
2023-02-28T06:09:28.530Z,10.50
2023-02-28T06:12:00.473Z,12.50
2023-02-28T06:14:28.786Z,13.80
2023-02-28T06:16:59.180Z,9.80
2023-02-28T06:19:28.576Z,12.70
2023-02-28T06:21:58.190Z,11.30
2023-02-28T06:24:29.265Z,11.80
2023-02-28T06:27:00.080Z,14.10
2023-02-28T06:29:34.436Z,14.40
2023-02-28T06:32:06.617Z,14.00
2023-02-28T06:34:37.238Z,16.00
2023-02-28T06:37:05.627Z,16.30
2023-02-28T06:39:34.618Z,11.10
2023-02-28T06:42:03.329Z,10.80
2023-02-28T06:44:36.491Z,12.90
2023-02-28T06:47:07.049Z,16.10
2023-02-28T06:49:36.658Z,9.50
2023-02-28T06:52:05.503Z,12.40
2023-02-28T06:54:33.729Z,11.40
2023-02-28T06:57:02.424Z,12.10
2023-02-28T06:59:31.008Z,11.40
2023-02-28T07:01:59.524Z,10.40
2023-02-28T07:04:28.957Z,13.60
2023-02-28T07:06:58.219Z,12.00
2023-02-28T07:09:31.292Z,12.00
2023-02-28T07:12:00.296Z,10.70
2023-02-28T07:14:28.471Z,10.80
2023-02-28T07:16:57.068Z,9.20
2023-02-28T07:19:25.673Z,10.30
2023-02-28T07:21:53.946Z,12.10
2023-02-28T07:24:24.981Z,12.90
2023-02-28T07:26:53.462Z,10.00
2023-02-28T07:29:22.358Z,14.60
2023-02-28T07:31:54.371Z,20.80
2023-02-28T07:34:35.655Z,12.30
2023-02-28T07:37:06.191Z,17.10
2023-02-28T07:39:34.729Z,13.60
2023-02-28T07:42:07.376Z,16.70
2023-02-28T07:44:35.902Z,9.40
2023-02-28T07:47:06.026Z,10.90
2023-02-28T07:49:36.764Z,12.20
2023-02-28T07:52:07.424Z,12.20
2023-02-28T07:54:35.690Z,12.60
2023-02-28T07:57:04.079Z,11.80
2023-02-28T07:59:32.556Z,10.50
2023-02-28T08:02:01.017Z,13.30
2023-02-28T08:04:30.299Z,12.40
2023-02-28T08:06:58.635Z,11.40
2023-02-28T08:09:27.435Z,9.70
2023-02-28T08:11:55.828Z,19.40
2023-02-28T08:14:23.986Z,9.70
2023-02-28T08:16:52.373Z,11.30
2023-02-28T08:19:21.170Z,11.40
2023-02-28T08:21:49.449Z,13.20
2023-02-28T08:24:17.729Z,16.40
2023-02-28T08:26:46.421Z,10.10
2023-02-28T08:29:14.903Z,11.70
2023-02-28T08:31:44.037Z,14.30
2023-02-28T08:34:14.856Z,12.20
2023-02-28T08:36:46.014Z,12.20
2023-02-28T08:39:14.686Z,13.50
2023-02-28T08:41:45.132Z,10.80
2023-02-28T08:44:13.707Z,9.70
2023-02-28T08:46:44.545Z,11.00
2023-02-28T08:49:13.417Z,14.80
2023-02-28T08:51:41.824Z,10.80
2023-02-28T08:54:13.495Z,13.80
2023-02-28T08:56:41.864Z,10.70
2023-02-28T08:59:10.762Z,12.60
2023-02-28T09:01:39.255Z,12.90
2023-02-28T09:04:09.649Z,12.20
2023-02-28T09:06:38.575Z,16.10
2023-02-28T09:09:08.580Z,15.60
2023-02-28T09:11:40.056Z,15.70
2023-02-28T09:14:08.455Z,12.40
2023-02-28T09:16:37.101Z,15.80
2023-02-28T09:19:05.509Z,12.70
2023-02-28T09:21:33.999Z,8.20
2023-02-28T09:24:02.185Z,9.40
2023-02-28T09:26:35.241Z,8.30
2023-02-28T09:29:12.352Z,9.10
2023-02-28T09:31:40.738Z,9.50
2023-02-28T09:34:09.598Z,10.50
2023-02-28T09:36:45.484Z,9.40
2023-02-28T09:39:16.724Z,10.60
2023-02-28T09:41:49.601Z,13.30
2023-02-28T09:44:41.281Z,10.00
2023-02-28T09:47:28.979Z,13.30
2023-02-28T09:50:13.071Z,8.70
2023-02-28T09:52:42.023Z,8.80
2023-02-28T09:55:56.750Z,10.80
2023-02-28T10:01:26.455Z,9.30
2023-02-28T10:04:19.054Z,7.50
2023-02-28T10:06:50.990Z,14.60
2023-02-28T10:09:25.394Z,8.20
2023-02-28T10:11:58.972Z,13.70
2023-02-28T10:14:30.492Z,12.80
2023-02-28T10:17:22.880Z,12.00
2023-02-28T10:19:51.072Z,11.00
2023-02-28T10:22:24.356Z,9.30
2023-02-28T10:24:55.110Z,10.20
2023-02-28T10:27:31.568Z,13.60
2023-02-28T10:30:03.072Z,8.90
2023-02-28T10:32:35.157Z,6.70
2023-02-28T10:35:24.452Z,8.20
2023-02-28T10:37:57.754Z,7.10
2023-02-28T10:40:26.031Z,12.90
2023-02-28T10:43:02.099Z,7.70
2023-02-28T10:45:33.631Z,6.40
2023-02-28T10:48:26.909Z,7.20
2023-02-28T10:50:58.896Z,6.20
2023-02-28T10:54:02.263Z,11.00
2023-02-28T10:56:32.454Z,6.70
2023-02-28T10:59:27.886Z,7.50
2023-02-28T11:01:57.242Z,5.40
2023-02-28T11:04:33.694Z,8.00
2023-02-28T11:07:22.954Z,11.20
2023-02-28T11:09:58.761Z,9.30
2023-02-28T11:12:34.198Z,8.50
2023-02-28T11:15:22.966Z,7.90
2023-02-28T11:17:59.320Z,9.00
2023-02-28T11:20:34.455Z,12.00
2023-02-28T11:23:05.636Z,12.60
2023-02-28T11:25:36.648Z,9.80
2023-02-28T11:28:23.558Z,7.80
2023-02-28T11:31:14.949Z,7.50
2023-02-28T11:33:47.342Z,8.60
2023-02-28T11:36:22.372Z,6.50
2023-02-28T11:38:50.970Z,8.40
2023-02-28T11:42:03.386Z,6.60
2023-02-28T11:44:58.247Z,17.10
2023-02-28T11:47:30.112Z,13.20
2023-02-28T11:50:08.721Z,13.50
2023-02-28T11:52:52.873Z,8.20
2023-02-28T11:58:22.486Z,18.70
2023-02-28T12:00:50.882Z,18.30
2023-02-28T12:03:42.675Z,23.00
2023-02-28T12:06:39.946Z,17.10
2023-02-28T12:09:12.118Z,13.80
2023-02-28T12:11:59.123Z,15.70
2023-02-28T12:15:05.882Z,13.80
2023-02-28T12:18:08.648Z,16.30
2023-02-28T12:21:07.529Z,11.90
2023-02-28T12:24:01.817Z,21.60
2023-02-28T12:26:50.659Z,17.00
2023-02-28T12:29:25.579Z,15.10
2023-02-28T12:32:12.798Z,16.80
2023-02-28T12:34:47.441Z,15.80
2023-02-28T12:37:26.353Z,16.00
2023-02-28T12:40:02.502Z,16.60
2023-02-28T12:42:36.428Z,14.10
2023-02-28T12:45:21.406Z,14.20
2023-02-28T12:47:57.197Z,17.10
2023-02-28T12:50:27.780Z,15.80
2023-02-28T12:53:09.566Z,13.20
2023-02-28T12:56:16.020Z,11.40
2023-02-28T12:59:24.027Z,14.80
2023-02-28T13:02:20.590Z,20.30
2023-02-28T13:05:17.162Z,12.60
2023-02-28T13:08:28.704Z,16.30
2023-02-28T13:10:57.321Z,12.80
2023-02-28T13:13:31.972Z,13.40
2023-02-28T13:16:01.655Z,12.60
2023-02-28T13:18:42.995Z,20.50
2023-02-28T13:21:31.768Z,9.90
2023-02-28T13:24:05.856Z,13.20
2023-02-28T13:29:28.665Z,18.00
2023-02-28T13:32:09.702Z,13.70
2023-02-28T13:34:49.379Z,18.00
2023-02-28T13:37:23.596Z,20.00
2023-02-28T13:39:57.716Z,11.30
2023-02-28T13:42:31.933Z,12.80
2023-02-28T13:45:03.205Z,15.30
2023-02-28T13:47:40.475Z,13.20
2023-02-28T13:50:26.767Z,13.40
2023-02-28T13:53:14.121Z,25.40
2023-02-28T13:55:54.753Z,19.10
2023-02-28T13:58:42.674Z,21.50
2023-02-28T14:01:25.806Z,14.40
2023-02-28T14:04:12.599Z,16.50
2023-02-28T14:06:53.159Z,11.00
2023-02-28T14:09:34.143Z,19.40
2023-02-28T14:12:47.760Z,14.10
2023-02-28T14:15:51.454Z,16.30
2023-02-28T14:18:27.356Z,14.30
2023-02-28T14:21:01.276Z,21.20
2023-02-28T14:26:55.084Z,15.20
2023-02-28T14:29:46.289Z,21.20
2023-02-28T14:32:45.775Z,15.40
2023-02-28T14:35:52.265Z,13.60
2023-02-28T14:38:31.152Z,16.30
2023-02-28T14:41:05.473Z,27.40
2023-02-28T14:46:06.266Z,22.30
2023-02-28T14:48:36.864Z,19.80
2023-02-28T14:51:06.785Z,17.50
2023-02-28T14:53:38.841Z,17.80
2023-02-28T14:56:07.646Z,13.60
2023-02-28T14:58:36.032Z,16.20
2023-02-28T15:01:05.596Z,17.20
2023-02-28T15:03:36.699Z,15.10
2023-02-28T15:06:14.400Z,12.20
2023-02-28T15:08:42.781Z,25.60
2023-02-28T15:11:23.400Z,18.90
2023-02-28T15:13:56.568Z,23.30
2023-02-28T15:16:24.872Z,22.40
2023-02-28T15:19:02.209Z,21.60
2023-02-28T15:21:34.914Z,17.00
2023-02-28T15:24:08.893Z,16.30
2023-02-28T15:26:42.212Z,28.60
2023-02-28T15:29:14.668Z,14.30
2023-02-28T15:31:57.310Z,18.10
2023-02-28T15:34:44.293Z,14.20
2023-02-28T15:38:06.663Z,18.30
2023-02-28T15:40:42.567Z,15.00
2023-02-28T15:43:20.042Z,14.00
2023-02-28T15:46:01.888Z,12.20
2023-02-28T15:48:38.051Z,14.60
2023-02-28T15:51:12.730Z,11.80
2023-02-28T15:54:02.416Z,16.90
2023-02-28T15:56:32.270Z,11.10
2023-02-28T15:59:07.293Z,16.60
2023-02-28T16:01:38.117Z,13.30
2023-02-28T16:04:20.872Z,13.10
2023-02-28T16:07:15.587Z,16.00
2023-02-28T16:09:43.974Z,13.40
2023-02-28T16:12:14.709Z,27.00
2023-02-28T16:14:43.838Z,14.90
2023-02-28T16:17:41.477Z,17.90
2023-02-28T16:20:21.737Z,23.40
2023-02-28T16:22:50.607Z,18.70
2023-02-28T16:25:24.737Z,29.00
2023-02-28T16:30:29.691Z,22.10
2023-02-28T16:32:59.100Z,19.10
2023-02-28T16:35:27.379Z,16.70
2023-02-28T16:37:56.066Z,22.90
2023-02-28T16:40:27.053Z,25.60
2023-02-28T16:43:00.000Z,15.90
2023-02-28T16:45:29.922Z,22.60
2023-02-28T16:47:58.926Z,13.30
2023-02-28T16:50:30.678Z,17.00
2023-02-28T16:52:59.061Z,15.20
2023-02-28T16:55:27.987Z,20.50
2023-02-28T16:58:01.571Z,14.20
2023-02-28T17:00:33.275Z,13.30
2023-02-28T17:03:05.118Z,18.40
2023-02-28T17:05:39.610Z,20.30
2023-02-28T17:08:07.791Z,24.90
2023-02-28T17:10:36.741Z,23.20
2023-02-28T17:13:14.467Z,18.90
2023-02-28T17:15:47.703Z,26.00
2023-02-28T17:18:20.035Z,22.10
2023-02-28T17:20:48.654Z,18.00
2023-02-28T17:23:17.129Z,25.50
2023-02-28T17:25:57.580Z,19.60
2023-02-28T17:28:26.690Z,27.30
2023-02-28T17:30:55.211Z,27.90
2023-02-28T17:33:23.567Z,37.00
2023-02-28T17:35:52.193Z,27.80
2023-02-28T17:38:24.108Z,26.00
2023-02-28T17:40:58.188Z,23.90
2023-02-28T17:43:28.061Z,30.30
2023-02-28T17:45:57.387Z,27.10
2023-02-28T17:48:26.680Z,32.70
2023-02-28T17:50:55.514Z,24.00
2023-02-28T17:53:24.325Z,23.10
2023-02-28T17:55:52.955Z,20.60
2023-02-28T17:58:21.740Z,28.10
2023-02-28T18:00:55.022Z,27.00
2023-02-28T18:03:23.316Z,32.80
2023-02-28T18:05:52.517Z,23.40
2023-02-28T18:08:21.015Z,31.90
2023-02-28T18:10:49.392Z,24.60
2023-02-28T18:13:17.673Z,23.90
2023-02-28T18:15:46.344Z,26.10
2023-02-28T18:18:16.833Z,32.70
2023-02-28T18:20:45.485Z,31.50
2023-02-28T18:23:13.782Z,24.80
2023-02-28T18:25:42.575Z,27.30
2023-02-28T18:28:11.045Z,25.70
2023-02-28T18:30:40.050Z,35.20
2023-02-28T18:33:08.441Z,40.60
2023-02-28T18:35:37.184Z,29.90
2023-02-28T18:38:15.814Z,22.70
2023-02-28T18:40:53.257Z,26.30
2023-02-28T18:43:21.825Z,22.80
2023-02-28T18:45:50.407Z,29.30
2023-02-28T18:48:20.082Z,25.80
2023-02-28T18:50:48.811Z,26.50
2023-02-28T18:53:18.442Z,25.00
2023-02-28T18:55:46.807Z,26.40
2023-02-28T18:58:15.701Z,31.30
2023-02-28T19:00:47.869Z,22.70
2023-02-28T19:03:16.361Z,20.40
2023-02-28T19:05:44.850Z,24.30
2023-02-28T19:08:13.639Z,36.00
2023-02-28T19:10:42.234Z,24.60
2023-02-28T19:13:10.615Z,22.50
2023-02-28T19:15:38.799Z,24.40
2023-02-28T19:18:07.522Z,25.00
2023-02-28T19:20:36.921Z,24.20
2023-02-28T19:23:05.579Z,23.30
2023-02-28T19:25:33.868Z,19.70
2023-02-28T19:28:02.161Z,24.70
2023-02-28T19:30:31.040Z,24.90
2023-02-28T19:32:59.229Z,20.40
2023-02-28T19:35:27.690Z,21.90
2023-02-28T19:37:58.267Z,24.40
2023-02-28T19:40:27.460Z,24.60
2023-02-28T19:42:55.729Z,25.20
2023-02-28T19:45:24.522Z,23.30
2023-02-28T19:47:53.521Z,24.90
2023-02-28T19:50:23.135Z,22.60
2023-02-28T19:52:51.732Z,26.40
2023-02-28T19:55:20.420Z,26.70
2023-02-28T19:57:48.703Z,30.20
2023-02-28T20:00:19.109Z,26.50
2023-02-28T20:02:47.513Z,29.90
2023-02-28T20:05:16.112Z,29.30
2023-02-28T20:07:44.598Z,27.60
2023-02-28T20:10:13.287Z,32.50
2023-02-28T20:12:41.983Z,29.00
2023-02-28T20:15:10.969Z,28.70
2023-02-28T20:17:40.994Z,27.20
2023-02-28T20:20:11.795Z,27.50
2023-02-28T20:22:40.229Z,26.40
2023-02-28T20:25:11.610Z,25.50
2023-02-28T20:27:40.167Z,23.60
2023-02-28T20:30:09.776Z,31.40
2023-02-28T20:32:39.862Z,29.90
2023-02-28T20:35:11.730Z,33.50
2023-02-28T20:37:40.354Z,29.60
2023-02-28T20:40:10.196Z,28.30
2023-02-28T20:42:38.557Z,27.20
2023-02-28T20:45:08.107Z,23.60
2023-02-28T20:47:36.981Z,31.40
2023-02-28T20:50:09.462Z,33.40
2023-02-28T20:52:37.820Z,25.10
2023-02-28T20:55:07.350Z,24.90
2023-02-28T20:57:35.821Z,27.90
2023-02-28T21:00:09.731Z,31.50
2023-02-28T21:02:38.268Z,26.00
2023-02-28T21:05:07.407Z,27.60
2023-02-28T21:07:35.708Z,27.00
2023-02-28T21:10:04.406Z,26.70
2023-02-28T21:12:32.782Z,25.30
2023-02-28T21:15:01.176Z,27.10
2023-02-28T21:17:29.859Z,27.70
2023-02-28T21:19:58.139Z,29.90
2023-02-28T21:22:26.318Z,26.70
2023-02-28T21:24:54.704Z,23.40
2023-02-28T21:27:23.292Z,25.30
2023-02-28T21:29:51.677Z,24.90
2023-02-28T21:32:20.126Z,25.60
2023-02-28T21:34:48.758Z,26.50
2023-02-28T21:37:17.051Z,27.30
2023-02-28T21:39:46.436Z,29.30
2023-02-28T21:42:14.934Z,27.10
2023-02-28T21:44:43.519Z,25.20
2023-02-28T21:47:12.418Z,27.30
2023-02-28T21:49:41.002Z,22.70
2023-02-28T21:52:09.385Z,25.10
2023-02-28T21:54:37.977Z,25.80
2023-02-28T21:57:06.404Z,25.30
2023-02-28T21:59:35.466Z,22.80
2023-02-28T22:02:05.706Z,23.90
2023-02-28T22:04:34.998Z,25.80
2023-02-28T22:07:03.577Z,22.70
2023-02-28T22:09:31.962Z,23.90
2023-02-28T22:12:00.249Z,22.30
2023-02-28T22:14:28.635Z,26.30
2023-02-28T22:16:57.764Z,25.20
2023-02-28T22:19:28.321Z,23.40
2023-02-28T22:21:57.772Z,25.60
2023-02-28T22:24:26.258Z,26.40
2023-02-28T22:26:54.649Z,29.50
2023-02-28T22:29:23.354Z,24.10
2023-02-28T22:31:51.879Z,27.70
2023-02-28T22:34:20.335Z,27.40
2023-02-28T22:36:48.807Z,28.40
2023-02-28T22:39:17.192Z,27.60
2023-02-28T22:41:45.781Z,27.30
2023-02-28T22:44:14.669Z,29.00
2023-02-28T22:46:43.492Z,26.80
2023-02-28T22:49:12.147Z,24.10
2023-02-28T22:51:40.541Z,30.60
2023-02-28T22:54:09.534Z,26.00
2023-02-28T22:56:38.029Z,31.70
2023-02-28T22:59:07.026Z,24.70
2023-02-28T23:01:35.834Z,25.20
2023-02-28T23:04:04.685Z,24.80
2023-02-28T23:06:42.160Z,24.90
2023-02-28T23:09:18.282Z,26.20
2023-02-28T23:11:50.018Z,24.10
2023-02-28T23:14:19.930Z,23.10
2023-02-28T23:16:57.207Z,23.70
2023-02-28T23:19:31.058Z,25.30
2023-02-28T23:22:00.947Z,22.90
2023-02-28T23:24:32.573Z,23.00
2023-02-28T23:27:04.997Z,22.90
2023-02-28T23:29:34.808Z,25.00
2023-02-28T23:32:03.937Z,25.10
2023-02-28T23:34:32.611Z,22.90
2023-02-28T23:37:02.229Z,20.10
2023-02-28T23:39:31.744Z,21.40
2023-02-28T23:42:02.088Z,22.50
2023-02-28T23:44:31.991Z,18.90
2023-02-28T23:47:01.087Z,19.10
2023-02-28T23:49:29.762Z,17.30
2023-02-28T23:51:58.152Z,18.90
2023-02-28T23:54:26.634Z,15.10
2023-02-28T23:56:55.116Z,18.70
2023-02-28T23:59:23.509Z,21.00
